Time;durP1;ratioP1;P1;durP2;ratioP2;P2;SDS_P1;SDS_P2;PMS_P1;PMS_P2;Temp;Humidity;BMP_temperature;BMP_pressure;BME280_temperature;BME280_humidity;BME280_pressure;Samples;Min_cycle;Max_cycle;Signal;HPM_P1;HPM_P2
2021/08/12 00:00:08;;;;;;;5.73;4.60;;;;;;;;;;2132082;27;20050;-43
2021/08/12 00:01:09;;;;;;;6.82;4.82;;;;;;;;;;2130556;27;20589;-43
2021/08/12 00:02:10;;;;;;;9.07;4.80;;;;;;;;;;2130485;27;20043;-42
2021/08/12 00:03:11;;;;;;;6.32;4.78;;;;;;;;;;2131889;27;20047;-42
2021/08/12 00:04:17;;;;;;;7.20;5.22;;;;;;;;;;2130661;27;20050;-43
2021/08/12 00:05:18;;;;;;;6.70;4.80;;;;;;;;;;2130547;27;20129;-43
2021/08/12 00:06:19;;;;;;;6.63;4.50;;;;;;;;;;2131849;27;20051;-42
2021/08/12 00:07:21;;;;;;;9.13;4.47;;;;;;;;;;2129256;27;20047;-43
2021/08/12 00:08:22;;;;;;;9.48;4.93;;;;;;;;;;2131361;27;20464;-44
2021/08/12 00:09:22;;;;;;;5.57;4.43;;;;;;;;;;2131966;27;20094;-43
2021/08/12 00:10:24;;;;;;;7.67;4.90;;;;;;;;;;2128556;27;20190;-44
2021/08/12 00:11:24;;;;;;;5.38;4.35;;;;;;;;;;2131243;27;20047;-42
2021/08/12 00:12:26;;;;;;;7.97;4.80;;;;;;;;;;2131783;27;20042;-43
2021/08/12 00:13:27;;;;;;;7.75;5.15;;;;;;;;;;2129711;27;20127;-44
2021/08/12 00:14:28;;;;;;;6.40;4.97;;;;;;;;;;2131630;27;20249;-43
2021/08/12 00:15:29;;;;;;;6.60;5.10;;;;;;;;;;2131895;27;20050;-43
2021/08/12 00:16:32;;;;;;;8.10;5.20;;;;;;;;;;2129312;27;20279;-43
2021/08/12 00:17:33;;;;;;;6.88;4.85;;;;;;;;;;2129549;27;20426;-43
2021/08/12 00:18:34;;;;;;;5.53;3.97;;;;;;;;;;2131825;27;20117;-42
2021/08/12 00:19:35;;;;;;;9.87;5.10;;;;;;;;;;2129274;27;20042;-44
2021/08/12 00:20:36;;;;;;;9.25;5.43;;;;;;;;;;2131737;27;20502;-43
2021/08/12 00:21:37;;;;;;;7.53;4.80;;;;;;;;;;2131721;27;20117;-43
2021/08/12 00:22:38;;;;;;;6.97;4.47;;;;;;;;;;2127829;27;20125;-43
2021/08/12 00:23:39;;;;;;;5.83;4.70;;;;;;;;;;2131794;27;20046;-44
2021/08/12 00:24:40;;;;;;;7.28;5.00;;;;;;;;;;2131387;27;20074;-42
2021/08/12 00:25:42;;;;;;;6.53;4.88;;;;;;;;;;2129799;27;20047;-43
2021/08/12 00:26:43;;;;;;;6.53;5.00;;;;;;;;;;2131910;27;20039;-42
2021/08/12 00:27:45;;;;;;;11.13;5.23;;;;;;;;;;2128361;27;20057;-42
2021/08/12 00:28:46;;;;;;;9.57;5.60;;;;;;;;;;2131048;27;20129;-42
2021/08/12 00:29:49;;;;;;;7.88;5.38;;;;;;;;;;2131710;27;20129;-43
2021/08/12 00:30:50;;;;;;;7.80;5.47;;;;;;;;;;2130482;27;20134;-42
2021/08/12 00:31:51;;;;;;;6.43;5.30;;;;;;;;;;2131471;27;20046;-43
2021/08/12 00:32:52;;;;;;;6.38;5.10;;;;;;;;;;2131681;27;20046;-43
2021/08/12 00:33:54;;;;;;;;;;;;;;;;;;2130848;27;20045;-43
2021/08/12 00:34:55;;;;;;;7.40;5.38;;;;;;;;;;2131326;27;19925;-42
2021/08/12 00:35:56;;;;;;;7.25;4.80;;;;;;;;;;2131841;27;20129;-43
2021/08/12 00:36:57;;;;;;;6.87;5.10;;;;;;;;;;2129888;27;20038;-44
2021/08/12 00:37:58;;;;;;;6.05;4.85;;;;;;;;;;2128403;27;20049;-44
2021/08/12 00:38:59;;;;;;;6.27;5.20;;;;;;;;;;2129098;27;20046;-44
2021/08/12 00:40:00;;;;;;;6.65;4.95;;;;;;;;;;2129043;27;20684;-44
2021/08/12 00:41:01;;;;;;;7.40;4.80;;;;;;;;;;2130439;27;20050;-46
2021/08/12 00:42:02;;;;;;;5.90;4.82;;;;;;;;;;2131208;27;20042;-43
2021/08/12 00:43:03;;;;;;;5.32;4.78;;;;;;;;;;2128503;27;20043;-43
2021/08/12 00:44:05;;;;;;;6.13;4.50;;;;;;;;;;2130328;27;20142;-43
2021/08/12 00:45:06;;;;;;;;;;;;;;;;;;2131699;27;20209;-43
2021/08/12 00:46:07;;;;;;;7.43;4.93;;;;;;;;;;2129219;27;19930;-43
2021/08/12 00:47:08;;;;;;;5.85;4.50;;;;;;;;;;2130866;27;20507;-46
2021/08/12 00:48:09;;;;;;;7.10;4.65;;;;;;;;;;2131236;27;20050;-43
2021/08/12 00:49:10;;;;;;;6.43;4.80;;;;;;;;;;2129213;27;20129;-44
2021/08/12 00:50:12;;;;;;;7.40;4.65;;;;;;;;;;2131378;27;20047;-43
2021/08/12 00:51:12;;;;;;;7.32;4.53;;;;;;;;;;2131566;27;20051;-43
2021/08/12 00:52:14;;;;;;;6.30;4.70;;;;;;;;;;2126740;27;20046;-44
2021/08/12 00:53:15;;;;;;;7.03;4.45;;;;;;;;;;2130259;27;20035;-42
2021/08/12 00:54:16;;;;;;;6.97;4.32;;;;;;;;;;2131013;27;20075;-42
2021/08/12 00:55:18;;;;;;;7.93;4.95;;;;;;;;;;2129472;27;20149;-44
2021/08/12 00:56:19;;;;;;;6.15;4.47;;;;;;;;;;2131641;27;20375;-43
2021/08/12 00:57:20;;;;;;;6.27;4.33;;;;;;;;;;2131095;27;20054;-44
2021/08/12 00:58:21;;;;;;;6.82;4.90;;;;;;;;;;2130663;27;20187;-43
2021/08/12 00:59:22;;;;;;;6.80;5.28;;;;;;;;;;2131554;27;20726;-43
2021/08/12 01:00:23;;;;;;;8.77;4.47;;;;;;;;;;2130818;27;20039;-43
2021/08/12 01:01:25;;;;;;;7.15;4.85;;;;;;;;;;2130242;27;20168;-44
2021/08/12 01:02:26;;;;;;;8.57;5.43;;;;;;;;;;2131423;27;20107;-43
2021/08/12 01:03:27;;;;;;;7.22;4.97;;;;;;;;;;2129974;27;20373;-42
2021/08/12 01:04:28;;;;;;;6.53;5.30;;;;;;;;;;2129956;27;20039;-44
2021/08/12 01:05:30;;;;;;;8.23;5.30;;;;;;;;;;2130682;27;20108;-44
2021/08/12 01:06:32;;;;;;;8.50;5.15;;;;;;;;;;2129700;27;20506;-43
2021/08/12 01:07:42;;;;;;;6.53;4.80;;;;;;;;;;2130796;27;20546;-44
2021/08/12 01:08:46;;;;;;;7.28;5.30;;;;;;;;;;2131391;27;20394;-43
2021/08/12 01:09:50;;;;;;;7.47;5.50;;;;;;;;;;2126888;27;20126;-43
2021/08/12 01:10:53;;;;;;;9.68;6.55;;;;;;;;;;2130704;27;20621;-42
2021/08/12 01:11:56;;;;;;;7.47;5.40;;;;;;;;;;2131569;27;20046;-42
2021/08/12 01:12:59;;;;;;;6.20;4.88;;;;;;;;;;2129199;27;20095;-43
2021/08/12 01:14:04;;;;;;;7.53;5.43;;;;;;;;;;2131556;27;20126;-42
2021/08/12 01:15:08;;;;;;;6.68;5.25;;;;;;;;;;2128335;27;20079;-43
2021/08/12 01:16:10;;;;;;;18.00;5.65;;;;;;;;;;2129337;27;20092;-43
2021/08/12 01:17:14;;;;;;;6.88;5.13;;;;;;;;;;2131400;27;20129;-43
2021/08/12 01:18:19;;;;;;;7.50;5.55;;;;;;;;;;2130138;27;20114;-44
2021/08/12 01:19:24;;;;;;;6.55;4.95;;;;;;;;;;2130541;27;20141;-43
2021/08/12 01:20:43;;;;;;;8.38;4.93;;;;;;;;;;2128690;27;20074;-43
2021/08/12 01:21:52;;;;;;;6.22;4.90;;;;;;;;;;2129044;27;20165;-43
2021/08/12 01:22:54;;;;;;;6.45;5.18;;;;;;;;;;2129859;27;20065;-42
2021/08/12 01:23:58;;;;;;;6.13;4.93;;;;;;;;;;2131463;27;20050;-43
2021/08/12 01:25:01;;;;;;;7.25;4.97;;;;;;;;;;2128605;27;20133;-42
2021/08/12 01:26:04;;;;;;;5.82;4.95;;;;;;;;;;2131421;27;20076;-43
2021/08/12 01:27:08;;;;;;;6.28;5.10;;;;;;;;;;2127954;27;20046;-44
2021/08/12 01:28:11;;;;;;;6.85;5.18;;;;;;;;;;2130632;27;20140;-44
2021/08/12 01:29:15;;;;;;;6.68;5.10;;;;;;;;;;2131331;27;20038;-43
2021/08/12 01:30:17;;;;;;;5.43;4.72;;;;;;;;;;2130283;27;20047;-43
2021/08/12 01:31:24;;;;;;;6.00;5.13;;;;;;;;;;2130044;27;20053;-43
2021/08/12 01:32:25;;;;;;;6.90;5.10;;;;;;;;;;2123175;28;20476;-42
2021/08/12 01:33:29;;;;;;;7.78;5.07;;;;;;;;;;2126224;27;20047;-43
2021/08/12 01:34:39;;;;;;;8.43;5.40;;;;;;;;;;2131676;27;20137;-43
2021/08/12 01:35:41;;;;;;;5.85;4.82;;;;;;;;;;2131824;27;20134;-43
2021/08/12 01:36:43;;;;;;;15.32;5.70;;;;;;;;;;2129535;27;20058;-42
2021/08/12 01:37:43;;;;;;;;;;;;;;;;;;2132248;27;20042;-43
2021/08/12 01:38:46;;;;;;;6.90;5.53;;;;;;;;;;2131793;27;19969;-43
2021/08/12 01:39:47;;;;;;;6.70;4.70;;;;;;;;;;2127809;27;20146;-43
2021/08/12 01:40:50;;;;;;;13.10;5.40;;;;;;;;;;2131744;27;20042;-44
2021/08/12 01:41:52;;;;;;;6.35;4.97;;;;;;;;;;2131326;27;20502;-44
2021/08/12 01:42:55;;;;;;;7.82;5.60;;;;;;;;;;2129556;27;20118;-42
2021/08/12 01:43:56;;;;;;;6.72;5.47;;;;;;;;;;2132009;27;20125;-42
2021/08/12 01:44:58;;;;;;;12.23;6.10;;;;;;;;;;2130228;27;20482;-43
2021/08/12 01:45:59;;;;;;;7.45;5.60;;;;;;;;;;2130864;27;20483;-42
2021/08/12 01:47:01;;;;;;;7.93;5.75;;;;;;;;;;2131723;27;20050;-42
2021/08/12 01:48:03;;;;;;;6.82;5.53;;;;;;;;;;2129692;27;20047;-44
2021/08/12 01:49:04;;;;;;;7.95;5.57;;;;;;;;;;2131206;27;20042;-44
2021/08/12 01:50:07;;;;;;;7.50;5.83;;;;;;;;;;2131886;27;20474;-43
2021/08/12 01:51:08;;;;;;;6.28;5.10;;;;;;;;;;2129611;27;20373;-44
2021/08/12 01:52:09;;;;;;;6.28;4.72;;;;;;;;;;2129901;27;20342;-44
2021/08/12 01:53:11;;;;;;;8.55;5.78;;;;;;;;;;2123341;27;20122;-43
2021/08/12 01:54:13;;;;;;;7.60;6.07;;;;;;;;;;2126189;27;20554;-42
2021/08/12 01:55:15;;;;;;;8.45;5.60;;;;;;;;;;2131440;27;20125;-43
2021/08/12 01:56:16;;;;;;;7.80;5.90;;;;;;;;;;2131668;27;20085;-42
2021/08/12 01:57:18;;;;;;;7.88;5.63;;;;;;;;;;2129453;27;20463;-42
2021/08/12 01:58:20;;;;;;;7.05;5.28;;;;;;;;;;2131565;27;20061;-43
2021/08/12 01:59:22;;;;;;;8.02;6.07;;;;;;;;;;2126993;27;20479;-43
2021/08/12 02:00:24;;;;;;;6.60;5.50;;;;;;;;;;2128125;27;20268;-43
2021/08/12 02:01:26;;;;;;;8.02;5.53;;;;;;;;;;2131824;27;20043;-45
2021/08/12 02:02:27;;;;;;;7.18;5.93;;;;;;;;;;2131674;27;20046;-46
2021/08/12 02:03:29;;;;;;;8.82;5.55;;;;;;;;;;2129306;27;20042;-47
2021/08/12 02:04:30;;;;;;;13.75;6.35;;;;;;;;;;2131686;27;20129;-45
2021/08/12 02:05:32;;;;;;;8.35;6.20;;;;;;;;;;2131312;27;20039;-45
2021/08/12 02:06:33;;;;;;;;;;;;;;;;;;2130057;27;20049;-44
2021/08/12 02:07:34;;;;;;;7.97;6.60;;;;;;;;;;2131460;27;19942;-47
2021/08/12 02:08:35;;;;;;;8.70;6.43;;;;;;;;;;2131349;27;20126;-44
2021/08/12 02:09:36;;;;;;;9.00;5.67;;;;;;;;;;2129747;27;20099;-46
2021/08/12 02:10:37;;;;;;;10.13;6.32;;;;;;;;;;2131620;27;20134;-46
2021/08/12 02:11:38;;;;;;;7.37;5.77;;;;;;;;;;2130485;27;20047;-44
2021/08/12 02:12:39;;;;;;;8.20;6.32;;;;;;;;;;2130495;27;20129;-45
2021/08/12 02:13:40;;;;;;;8.53;5.83;;;;;;;;;;2131659;27;20055;-45
2021/08/12 02:14:41;;;;;;;7.82;5.78;;;;;;;;;;2129584;27;20401;-45
2021/08/12 02:15:42;;;;;;;7.38;5.38;;;;;;;;;;2131275;27;20043;-44
2021/08/12 02:16:43;;;;;;;8.27;6.40;;;;;;;;;;2131731;27;20038;-47
2021/08/12 02:17:45;;;;;;;10.60;6.45;;;;;;;;;;2129773;27;20066;-46
2021/08/12 02:18:45;;;;;;;8.98;6.38;;;;;;;;;;2130942;27;20586;-46
2021/08/12 02:19:47;;;;;;;6.93;6.00;;;;;;;;;;2131603;27;20142;-44
2021/08/12 02:20:50;;;;;;;10.50;6.63;;;;;;;;;;2129480;27;20126;-48
2021/08/12 02:21:53;;;;;;;8.82;5.70;;;;;;;;;;2131134;27;20060;-48
2021/08/12 02:22:58;;;;;;;7.00;6.13;;;;;;;;;;2131372;27;20481;-47
2021/08/12 02:24:02;;;;;;;7.95;6.22;;;;;;;;;;2129410;27;20134;-46
2021/08/12 02:25:05;;;;;;;10.40;6.80;;;;;;;;;;2131180;27;20455;-47
2021/08/12 02:26:09;;;;;;;7.00;5.93;;;;;;;;;;2131524;27;20048;-45
2021/08/12 02:27:12;;;;;;;8.88;6.07;;;;;;;;;;2128866;27;20172;-44
2021/08/12 02:28:14;;;;;;;8.57;6.72;;;;;;;;;;2131420;27;20575;-45
2021/08/12 02:29:16;;;;;;;9.70;6.32;;;;;;;;;;2131145;27;20129;-45
2021/08/12 02:30:17;;;;;;;8.82;6.70;;;;;;;;;;2129608;27;20121;-44
2021/08/12 02:31:19;;;;;;;7.95;6.68;;;;;;;;;;2131448;27;20129;-45
2021/08/12 02:32:24;;;;;;;10.52;6.78;;;;;;;;;;2130724;27;20087;-47
2021/08/12 02:33:26;;;;;;;10.65;7.10;;;;;;;;;;2130478;27;20133;-48
2021/08/12 02:34:27;;;;;;;11.45;6.85;;;;;;;;;;2131481;27;20053;-48
2021/08/12 02:35:29;;;;;;;9.00;6.65;;;;;;;;;;2129453;27;20046;-45
2021/08/12 02:36:30;;;;;;;8.45;6.63;;;;;;;;;;2130826;27;20490;-48
2021/08/12 02:37:31;;;;;;;;;;;;;;;;;;2131931;27;20066;-44
2021/08/12 02:38:33;;;;;;;7.70;6.50;;;;;;;;;;2129201;27;19973;-44
2021/08/12 02:39:35;;;;;;;8.35;6.65;;;;;;;;;;2131020;27;20098;-44
2021/08/12 02:40:37;;;;;;;9.38;6.68;;;;;;;;;;2130914;27;20047;-44
2021/08/12 02:41:37;;;;;;;8.02;6.88;;;;;;;;;;2129332;27;20122;-45
2021/08/12 02:42:40;;;;;;;9.77;6.80;;;;;;;;;;2131115;27;20046;-45
2021/08/12 02:43:41;;;;;;;7.60;5.80;;;;;;;;;;2131280;27;20479;-44
2021/08/12 02:44:43;;;;;;;9.02;6.82;;;;;;;;;;2129282;27;20070;-44
2021/08/12 02:45:45;;;;;;;8.65;6.80;;;;;;;;;;2130113;27;20050;-44
2021/08/12 02:46:46;;;;;;;9.43;7.20;;;;;;;;;;2131543;27;20129;-45
2021/08/12 02:47:48;;;;;;;10.10;6.68;;;;;;;;;;2128945;27;20039;-45
2021/08/12 02:48:50;;;;;;;8.13;6.78;;;;;;;;;;2131222;27;20516;-47
2021/08/12 02:49:52;;;;;;;8.25;6.78;;;;;;;;;;2131305;27;20458;-45
2021/08/12 02:50:54;;;;;;;8.90;6.60;;;;;;;;;;2129036;27;20098;-45
2021/08/12 02:51:56;;;;;;;10.77;7.20;;;;;;;;;;2131380;27;20134;-44
2021/08/12 02:52:58;;;;;;;11.18;7.70;;;;;;;;;;2122582;27;20488;-45
2021/08/12 02:54:00;;;;;;;9.65;7.25;;;;;;;;;;2129454;27;20134;-44
2021/08/12 02:55:01;;;;;;;7.78;6.78;;;;;;;;;;2131304;27;20126;-46
2021/08/12 02:56:03;;;;;;;10.20;6.93;;;;;;;;;;2123799;27;20045;-46
2021/08/12 02:57:05;;;;;;;8.48;6.97;;;;;;;;;;2129399;27;20141;-48
2021/08/12 02:58:08;;;;;;;11.13;6.43;;;;;;;;;;2131277;27;20122;-47
2021/08/12 02:59:09;;;;;;;10.18;6.88;;;;;;;;;;2129767;27;20604;-45
2021/08/12 03:00:11;;;;;;;11.82;7.22;;;;;;;;;;2130689;27;20056;-44
2021/08/12 03:01:13;;;;;;;10.35;6.80;;;;;;;;;;2131214;27;20133;-46
2021/08/12 03:02:16;;;;;;;10.38;7.55;;;;;;;;;;2129130;27;20513;-47
2021/08/12 03:03:18;;;;;;;10.00;7.35;;;;;;;;;;2129800;27;20459;-44
2021/08/12 03:04:19;;;;;;;10.80;7.30;;;;;;;;;;2131409;27;20054;-44
2021/08/12 03:05:20;;;;;;;9.75;8.15;;;;;;;;;;2129060;27;20059;-45
2021/08/12 03:06:21;;;;;;;8.45;7.30;;;;;;;;;;2130861;27;20123;-46
2021/08/12 03:07:24;;;;;;;10.55;7.07;;;;;;;;;;2131160;27;20406;-44
2021/08/12 03:08:25;;;;;;;9.45;7.50;;;;;;;;;;2128957;27;20130;-45
2021/08/12 03:09:27;;;;;;;9.70;6.93;;;;;;;;;;2131160;27;20071;-47
2021/08/12 03:10:28;;;;;;;10.00;7.57;;;;;;;;;;2131219;27;20091;-44
2021/08/12 03:11:29;;;;;;;10.32;7.50;;;;;;;;;;2128959;27;20043;-44
2021/08/12 03:12:30;;;;;;;9.02;7.00;;;;;;;;;;2131046;27;20130;-44
2021/08/12 03:13:32;;;;;;;8.27;6.72;;;;;;;;;;2131367;27;20043;-45
2021/08/12 03:14:35;;;;;;;9.80;7.35;;;;;;;;;;2128736;27;20042;-45
2021/08/12 03:15:37;;;;;;;9.60;7.40;;;;;;;;;;2131363;27;20046;-45
2021/08/12 03:16:39;;;;;;;8.98;6.72;;;;;;;;;;2131172;27;20705;-46
2021/08/12 03:17:40;;;;;;;11.63;8.07;;;;;;;;;;2128685;27;20129;-45
2021/08/12 03:18:41;;;;;;;11.57;7.03;;;;;;;;;;2131386;27;20418;-44
2021/08/12 03:19:44;;;;;;;10.00;7.70;;;;;;;;;;2130707;27;20047;-45
2021/08/12 03:20:45;;;;;;;9.20;7.60;;;;;;;;;;2129292;27;20071;-45
2021/08/12 03:21:59;;;;;;;12.45;7.70;;;;;;;;;;2131114;27;20126;-45
2021/08/12 03:23:01;;;;;;;8.95;6.72;;;;;;;;;;2129174;27;20118;-46
2021/08/12 03:24:04;;;;;;;8.40;7.15;;;;;;;;;;2130629;27;20130;-44
2021/08/12 03:25:05;;;;;;;11.60;7.80;;;;;;;;;;2131177;27;20102;-44
2021/08/12 03:26:07;;;;;;;11.00;7.82;;;;;;;;;;2129183;27;20139;-45
2021/08/12 03:27:11;;;;;;;12.38;7.40;;;;;;;;;;2130959;27;20107;-45
2021/08/12 03:28:11;;;;;;;12.82;7.90;;;;;;;;;;2131178;27;20081;-44
2021/08/12 03:29:13;;;;;;;11.37;7.87;;;;;;;;;;2128910;27;20043;-45
2021/08/12 03:30:14;;;;;;;10.18;7.80;;;;;;;;;;2130981;27;20047;-45
2021/08/12 03:31:15;;;;;;;9.93;7.47;;;;;;;;;;2131043;27;20043;-46
2021/08/12 03:32:16;;;;;;;10.65;8.15;;;;;;;;;;2128651;27;20505;-44
2021/08/12 03:33:17;;;;;;;9.40;7.77;;;;;;;;;;2131155;27;20043;-46
2021/08/12 03:34:18;;;;;;;11.25;7.63;;;;;;;;;;2131273;27;20038;-45
2021/08/12 03:35:19;;;;;;;12.27;8.07;;;;;;;;;;2128581;27;20143;-45
2021/08/12 03:36:21;;;;;;;8.68;7.45;;;;;;;;;;2131253;27;20053;-45
2021/08/12 03:37:22;;;;;;;10.85;7.53;;;;;;;;;;2131045;27;20039;-45
2021/08/12 03:38:23;;;;;;;10.93;7.50;;;;;;;;;;2128747;27;20106;-48
2021/08/12 03:39:24;;;;;;;12.05;8.73;;;;;;;;;;2131099;27;20179;-48
2021/08/12 03:40:26;;;;;;;10.57;7.57;;;;;;;;;;2130713;27;20582;-45
2021/08/12 03:41:27;;;;;;;15.02;8.20;;;;;;;;;;2129129;27;20046;-48
2021/08/12 03:42:28;;;;;;;11.00;7.97;;;;;;;;;;2131198;27;20047;-45
2021/08/12 03:43:29;;;;;;;9.18;7.55;;;;;;;;;;2130721;27;20220;-45
2021/08/12 03:44:30;;;;;;;14.53;7.90;;;;;;;;;;2128982;27;20054;-47
2021/08/12 03:45:38;;;;;;;11.18;8.13;;;;;;;;;;2131017;27;20047;-47
2021/08/12 03:46:39;;;;;;;9.67;7.93;;;;;;;;;;2128984;27;20480;-44
2021/08/12 03:47:40;;;;;;;8.88;7.15;;;;;;;;;;2130687;27;20285;-47
2021/08/12 03:48:41;;;;;;;8.95;6.78;;;;;;;;;;2131010;27;20402;-44
2021/08/12 03:49:42;;;;;;;13.90;7.40;;;;;;;;;;2129082;27;20053;-45
2021/08/12 03:50:43;;;;;;;15.63;8.82;;;;;;;;;;2130563;27;20134;-45
2021/08/12 03:51:44;;;;;;;11.10;7.27;;;;;;;;;;2127621;27;20125;-46
2021/08/12 03:52:45;;;;;;;8.27;6.28;;;;;;;;;;2124111;27;20126;-48
2021/08/12 03:53:46;;;;;;;7.80;6.87;;;;;;;;;;2132290;27;20516;-47
2021/08/12 03:54:47;;;;;;;9.95;6.43;;;;;;;;;;2132528;27;20126;-44
2021/08/12 03:55:48;;;;;;;8.27;6.87;;;;;;;;;;2130344;27;20548;-47
2021/08/12 03:56:49;;;;;;;10.55;6.78;;;;;;;;;;2131421;27;20042;-45
2021/08/12 03:57:50;;;;;;;8.90;6.47;;;;;;;;;;2132342;27;20406;-46
2021/08/12 03:58:51;;;;;;;10.40;7.10;;;;;;;;;;2130437;27;20114;-48
2021/08/12 03:59:52;;;;;;;10.50;7.27;;;;;;;;;;2132352;27;20436;-42
2021/08/12 04:00:54;;;;;;;9.43;6.63;;;;;;;;;;2132801;27;20057;-42
2021/08/12 04:01:55;;;;;;;10.52;6.82;;;;;;;;;;2130148;27;20046;-44
2021/08/12 04:02:57;;;;;;;8.98;6.97;;;;;;;;;;2132262;27;20038;-43
2021/08/12 04:03:59;;;;;;;9.52;7.00;;;;;;;;;;2132404;27;20047;-43
2021/08/12 04:05:00;;;;;;;11.07;7.28;;;;;;;;;;2130068;27;20558;-44
2021/08/12 04:06:01;;;;;;;10.18;6.72;;;;;;;;;;2132535;27;20121;-43
2021/08/12 04:07:02;;;;;;;8.17;6.43;;;;;;;;;;2132446;27;20087;-43
2021/08/12 04:08:04;;;;;;;9.45;7.05;;;;;;;;;;2130013;27;20089;-42
2021/08/12 04:09:05;;;;;;;8.50;6.65;;;;;;;;;;2132388;27;20470;-42
2021/08/12 04:10:07;;;;;;;10.57;6.30;;;;;;;;;;2131804;27;20534;-43
2021/08/12 04:11:08;;;;;;;11.57;6.88;;;;;;;;;;2130346;27;20508;-42
2021/08/12 04:12:09;;;;;;;11.57;6.85;;;;;;;;;;2132515;27;20121;-43
2021/08/12 04:13:10;;;;;;;9.98;6.70;;;;;;;;;;2132022;27;20047;-43
2021/08/12 04:14:11;;;;;;;8.02;6.45;;;;;;;;;;2130519;27;20051;-43
2021/08/12 04:15:12;;;;;;;13.57;6.97;;;;;;;;;;2132419;27;20359;-43
2021/08/12 04:16:13;;;;;;;8.15;6.70;;;;;;;;;;2131388;27;20034;-43
2021/08/12 04:17:14;;;;;;;10.55;6.57;;;;;;;;;;2130950;27;20111;-43
2021/08/12 04:18:15;;;;;;;8.02;6.15;;;;;;;;;;2132305;27;20038;-43
2021/08/12 04:19:16;;;;;;;8.93;6.30;;;;;;;;;;2130631;27;20068;-43
2021/08/12 04:20:17;;;;;;;9.23;6.47;;;;;;;;;;2130902;27;20063;-44
2021/08/12 04:21:18;;;;;;;7.85;6.13;;;;;;;;;;2132346;27;20038;-43
2021/08/12 04:22:19;;;;;;;8.93;6.33;;;;;;;;;;2130393;27;20137;-44
2021/08/12 04:23:20;;;;;;;7.93;5.72;;;;;;;;;;2132048;27;20061;-45
2021/08/12 04:24:22;;;;;;;9.30;6.30;;;;;;;;;;2132282;27;20051;-46
2021/08/12 04:25:23;;;;;;;9.70;6.32;;;;;;;;;;2130252;27;20042;-46
2021/08/12 04:26:27;;;;;;;10.43;6.47;;;;;;;;;;2132058;27;20384;-46
2021/08/12 04:27:28;;;;;;;9.55;6.22;;;;;;;;;;2132215;27;20517;-45
2021/08/12 04:28:29;;;;;;;8.90;6.63;;;;;;;;;;2130085;27;20050;-46
2021/08/12 04:29:30;;;;;;;8.68;6.05;;;;;;;;;;2132009;27;20437;-46
2021/08/12 04:30:31;;;;;;;8.85;6.00;;;;;;;;;;2132377;27;20046;-44
2021/08/12 04:31:32;;;;;;;10.75;6.40;;;;;;;;;;2129901;27;20102;-45
2021/08/12 04:32:35;;;;;;;7.63;5.80;;;;;;;;;;2131083;27;20411;-44
2021/08/12 04:33:36;;;;;;;8.18;6.13;;;;;;;;;;2132277;27;20125;-46
2021/08/12 04:34:38;;;;;;;12.07;6.93;;;;;;;;;;2129871;27;20042;-44
2021/08/12 04:35:39;;;;;;;7.18;6.05;;;;;;;;;;2132256;27;20046;-44
2021/08/12 04:36:40;;;;;;;9.95;5.60;;;;;;;;;;2132404;27;20137;-46
2021/08/12 04:37:43;;;;;;;8.27;5.60;;;;;;;;;;2129780;27;20506;-44
2021/08/12 04:38:44;;;;;;;7.63;4.85;;;;;;;;;;2132358;27;20070;-45
2021/08/12 04:39:46;;;;;;;7.05;5.55;;;;;;;;;;2131905;27;20088;-46
2021/08/12 04:40:47;;;;;;;9.95;6.45;;;;;;;;;;2130205;27;20050;-47
2021/08/12 04:41:48;;;;;;;9.95;5.93;;;;;;;;;;2132316;27;20129;-47
2021/08/12 04:42:49;;;;;;;15.80;6.87;;;;;;;;;;2131719;27;20437;-46
2021/08/12 04:43:51;;;;;;;10.40;6.80;;;;;;;;;;2129990;27;20333;-44
2021/08/12 04:44:52;;;;;;;7.85;5.80;;;;;;;;;;2132234;27;20126;-48
2021/08/12 04:45:53;;;;;;;10.83;5.97;;;;;;;;;;2131113;27;20107;-45
2021/08/12 04:46:55;;;;;;;9.95;5.47;;;;;;;;;;2130878;27;20047;-43
2021/08/12 04:48:00;;;;;;;9.23;5.40;;;;;;;;;;2131834;27;20187;-43
2021/08/12 04:49:02;;;;;;;8.02;5.35;;;;;;;;;;2128000;27;20122;-44
2021/08/12 04:50:03;;;;;;;7.45;5.18;;;;;;;;;;2131541;27;20096;-44
2021/08/12 04:51:04;;;;;;;7.90;5.70;;;;;;;;;;2131281;27;20046;-44
2021/08/12 04:52:07;;;;;;;11.60;6.00;;;;;;;;;;2129171;27;20035;-46
2021/08/12 04:53:08;;;;;;;9.25;6.43;;;;;;;;;;2129649;27;20276;-46
2021/08/12 04:54:09;;;;;;;8.50;5.43;;;;;;;;;;2131269;27;20047;-47
2021/08/12 04:55:11;;;;;;;9.25;6.00;;;;;;;;;;2129224;27;20057;-44
2021/08/12 04:56:12;;;;;;;;;;;;;;;;;;2131585;27;20066;-45
2021/08/12 04:57:13;;;;;;;8.95;5.30;;;;;;;;;;2131176;27;19967;-46
2021/08/12 04:58:15;;;;;;;7.90;5.60;;;;;;;;;;2129064;27;20042;-45
2021/08/12 04:59:16;;;;;;;9.50;5.03;;;;;;;;;;2130358;27;20369;-45
2021/08/12 05:00:17;;;;;;;11.27;5.70;;;;;;;;;;2131269;27;20117;-44
2021/08/12 05:01:18;;;;;;;11.60;5.57;;;;;;;;;;2128895;27;20497;-44
2021/08/12 05:02:19;;;;;;;9.50;5.72;;;;;;;;;;2131119;27;20054;-45
2021/08/12 05:03:21;;;;;;;13.25;5.18;;;;;;;;;;2130955;27;20042;-45
2021/08/12 05:04:22;;;;;;;9.75;4.97;;;;;;;;;;2128978;27;20081;-44
2021/08/12 05:05:23;;;;;;;8.47;5.00;;;;;;;;;;2131526;27;20046;-44
2021/08/12 05:06:24;;;;;;;16.45;5.40;;;;;;;;;;2131962;27;20350;-46
2021/08/12 05:07:25;;;;;;;7.43;4.72;;;;;;;;;;2129504;27;20125;-44
2021/08/12 05:08:26;;;;;;;11.93;5.28;;;;;;;;;;2132181;27;20054;-46
2021/08/12 05:09:27;;;;;;;7.23;4.67;;;;;;;;;;2131628;27;20414;-46
2021/08/12 05:10:29;;;;;;;11.30;5.60;;;;;;;;;;2130061;27;20039;-44
2021/08/12 05:11:30;;;;;;;7.78;5.25;;;;;;;;;;2131885;27;20490;-45
2021/08/12 05:12:31;;;;;;;5.90;4.65;;;;;;;;;;2131451;27;20497;-44
2021/08/12 05:13:32;;;;;;;10.70;6.10;;;;;;;;;;2130115;27;20046;-46
2021/08/12 05:14:32;;;;;;;13.23;5.50;;;;;;;;;;2132112;27;20047;-45
2021/08/12 05:15:34;;;;;;;10.67;5.20;;;;;;;;;;2130920;27;20505;-43
2021/08/12 05:16:35;;;;;;;8.02;4.82;;;;;;;;;;2130819;27;20274;-46
2021/08/12 05:17:36;;;;;;;11.93;5.50;;;;;;;;;;2132011;27;20372;-46
2021/08/12 05:18:37;;;;;;;10.02;4.82;;;;;;;;;;2130140;27;20129;-45
2021/08/12 05:19:38;;;;;;;13.27;5.63;;;;;;;;;;2131519;27;20502;-47
2021/08/12 05:20:39;;;;;;;7.70;4.90;;;;;;;;;;2131869;27;20070;-47
2021/08/12 05:21:40;;;;;;;8.90;5.00;;;;;;;;;;2129167;27;20045;-45
2021/08/12 05:22:41;;;;;;;9.77;4.90;;;;;;;;;;2131512;27;20475;-42
2021/08/12 05:23:42;;;;;;;7.43;4.53;;;;;;;;;;2132033;27;20087;-42
2021/08/12 05:24:43;;;;;;;6.93;5.03;;;;;;;;;;2129867;27;20097;-42
2021/08/12 05:25:45;;;;;;;8.30;5.20;;;;;;;;;;2131444;27;20045;-44
2021/08/12 05:26:46;;;;;;;5.63;4.18;;;;;;;;;;2131932;27;20110;-44
2021/08/12 05:27:47;;;;;;;14.63;4.77;;;;;;;;;;2129569;27;20070;-42
2021/08/12 05:28:48;;;;;;;5.45;4.70;;;;;;;;;;2131832;27;20354;-43
2021/08/12 05:29:49;;;;;;;8.97;5.27;;;;;;;;;;2131963;27;20047;-42
2021/08/12 05:30:50;;;;;;;6.88;4.55;;;;;;;;;;2129651;27;20539;-43
2021/08/12 05:31:51;;;;;;;7.75;4.53;;;;;;;;;;2131502;27;20046;-43
2021/08/12 05:32:52;;;;;;;6.22;4.57;;;;;;;;;;2131861;27;20559;-42
2021/08/12 05:33:55;;;;;;;13.10;4.75;;;;;;;;;;2129451;27;20110;-43
2021/08/12 05:34:56;;;;;;;13.55;4.45;;;;;;;;;;2131782;27;20046;-42
2021/08/12 05:35:57;;;;;;;7.45;4.63;;;;;;;;;;2131822;27;20506;-42
2021/08/12 05:36:59;;;;;;;8.90;4.67;;;;;;;;;;2129380;27;20057;-43
2021/08/12 05:38:00;;;;;;;6.07;4.05;;;;;;;;;;2131874;27;20137;-43
2021/08/12 05:39:01;;;;;;;10.25;4.70;;;;;;;;;;2131843;27;20552;-42
2021/08/12 05:40:03;;;;;;;10.80;4.75;;;;;;;;;;2129324;27;20051;-43
2021/08/12 05:41:04;;;;;;;8.40;4.85;;;;;;;;;;2131770;27;20039;-43
2021/08/12 05:42:05;;;;;;;6.60;4.47;;;;;;;;;;2131389;27;20455;-42
2021/08/12 05:43:06;;;;;;;6.50;4.32;;;;;;;;;;2129602;27;20118;-43
2021/08/12 05:44:07;;;;;;;5.90;4.87;;;;;;;;;;2129091;27;20288;-43
2021/08/12 05:45:08;;;;;;;6.93;4.43;;;;;;;;;;2123905;27;20125;-43
2021/08/12 05:46:09;;;;;;;11.52;4.57;;;;;;;;;;2129819;27;20034;-45
2021/08/12 05:47:10;;;;;;;6.82;4.25;;;;;;;;;;2131806;27;20129;-44
2021/08/12 05:48:12;;;;;;;11.17;4.30;;;;;;;;;;2130687;27;20042;-43
2021/08/12 05:49:13;;;;;;;7.68;4.10;;;;;;;;;;2130040;27;20288;-42
2021/08/12 05:50:14;;;;;;;8.73;4.05;;;;;;;;;;2131762;27;20066;-43
2021/08/12 05:51:15;;;;;;;9.93;4.28;;;;;;;;;;2129738;27;20212;-42
2021/08/12 05:52:16;;;;;;;6.70;4.00;;;;;;;;;;2128664;27;20047;-45
2021/08/12 05:53:17;;;;;;;15.10;4.38;;;;;;;;;;2123339;27;20350;-43
2021/08/12 05:54:19;;;;;;;9.73;3.97;;;;;;;;;;2124799;27;20054;-42
2021/08/12 05:55:20;;;;;;;7.40;4.38;;;;;;;;;;2131265;27;20236;-42
2021/08/12 05:56:22;;;;;;;7.87;4.50;;;;;;;;;;2131631;27;20066;-42
2021/08/12 05:57:22;;;;;;;9.95;4.10;;;;;;;;;;2129471;27;20822;-44
2021/08/12 05:58:24;;;;;;;7.50;3.80;;;;;;;;;;2131466;27;20047;-43
2021/08/12 05:59:24;;;;;;;4.80;3.63;;;;;;;;;;2131686;27;20099;-44
2021/08/12 06:00:26;;;;;;;7.97;4.00;;;;;;;;;;2129626;27;20440;-43
2021/08/12 06:01:27;;;;;;;5.22;3.42;;;;;;;;;;2131341;27;20569;-42
2021/08/12 06:02:28;;;;;;;7.25;3.33;;;;;;;;;;2131836;27;20042;-43
2021/08/12 06:03:29;;;;;;;10.13;4.18;;;;;;;;;;2129457;27;20081;-42
2021/08/12 06:04:31;;;;;;;11.15;3.97;;;;;;;;;;2130497;27;20055;-43
2021/08/12 06:05:32;;;;;;;6.85;3.75;;;;;;;;;;2131535;27;20133;-43
2021/08/12 06:06:38;;;;;;;12.52;4.00;;;;;;;;;;2129480;27;20043;-44
2021/08/12 06:07:39;;;;;;;6.38;3.85;;;;;;;;;;2131632;27;20081;-45
2021/08/12 06:08:40;;;;;;;11.33;3.77;;;;;;;;;;2131789;27;20404;-43